sensor_id;sensor_type;location;lat;lon;timestamp;P1;durP1;ratioP1;P2;durP2;ratioP2
84474;SDS011;74699;43.068;0.152;2024-02-16T00:01:57;7.13;;;4.85;;
84474;SDS011;74699;43.068;0.152;2024-02-16T00:04:23;8.52;;;5.07;;
84474;SDS011;74699;43.068;0.152;2024-02-16T00:06:49;8.20;;;4.32;;
84474;SDS011;74699;43.068;0.152;2024-02-16T00:09:15;5.07;;;3.50;;
84474;SDS011;74699;43.068;0.152;2024-02-16T00:11:42;6.05;;;2.65;;
84474;SDS011;74699;43.068;0.152;2024-02-16T00:14:09;3.00;;;1.40;;
84474;SDS011;74699;43.068;0.152;2024-02-16T00:16:35;3.85;;;1.05;;
84474;SDS011;74699;43.068;0.152;2024-02-16T00:19:01;2.90;;;0.90;;
84474;SDS011;74699;43.068;0.152;2024-02-16T00:21:27;2.08;;;0.40;;
84474;SDS011;74699;43.068;0.152;2024-02-16T00:23:54;2.42;;;0.60;;
84474;SDS011;74699;43.068;0.152;2024-02-16T00:26:20;2.25;;;0.40;;
84474;SDS011;74699;43.068;0.152;2024-02-16T00:28:46;2.38;;;0.30;;
84474;SDS011;74699;43.068;0.152;2024-02-16T00:31:12;1.27;;;0.25;;
84474;SDS011;74699;43.068;0.152;2024-02-16T00:33:38;0.73;;;0.20;;
84474;SDS011;74699;43.068;0.152;2024-02-16T00:36:04;1.02;;;0.20;;
84474;SDS011;74699;43.068;0.152;2024-02-16T00:38:30;2.53;;;0.30;;
84474;SDS011;74699;43.068;0.152;2024-02-16T00:40:56;0.95;;;0.20;;
84474;SDS011;74699;43.068;0.152;2024-02-16T00:43:22;1.30;;;0.25;;
84474;SDS011;74699;43.068;0.152;2024-02-16T00:45:48;1.08;;;0.10;;
84474;SDS011;74699;43.068;0.152;2024-02-16T00:48:14;1.73;;;0.22;;
84474;SDS011;74699;43.068;0.152;2024-02-16T00:50:40;0.73;;;0.10;;
84474;SDS011;74699;43.068;0.152;2024-02-16T00:53:07;0.52;;;0.13;;
84474;SDS011;74699;43.068;0.152;2024-02-16T00:55:34;1.45;;;0.30;;
84474;SDS011;74699;43.068;0.152;2024-02-16T00:58:00;0.73;;;0.20;;
84474;SDS011;74699;43.068;0.152;2024-02-16T01:00:26;1.05;;;0.20;;
84474;SDS011;74699;43.068;0.152;2024-02-16T01:02:52;1.02;;;0.20;;
84474;SDS011;74699;43.068;0.152;2024-02-16T01:05:18;2.40;;;0.38;;
84474;SDS011;74699;43.068;0.152;2024-02-16T01:07:44;0.90;;;0.22;;
84474;SDS011;74699;43.068;0.152;2024-02-16T01:10:10;1.45;;;0.22;;
84474;SDS011;74699;43.068;0.152;2024-02-16T01:12:39;1.38;;;0.50;;
84474;SDS011;74699;43.068;0.152;2024-02-16T01:15:05;0.35;;;0.20;;
84474;SDS011;74699;43.068;0.152;2024-02-16T01:17:31;0.38;;;0.08;;
84474;SDS011;74699;43.068;0.152;2024-02-16T01:19:58;0.00;;;0.00;;
84474;SDS011;74699;43.068;0.152;2024-02-16T01:22:24;0.45;;;0.00;;
84474;SDS011;74699;43.068;0.152;2024-02-16T01:24:51;0.70;;;0.10;;
84474;SDS011;74699;43.068;0.152;2024-02-16T01:27:17;0.25;;;0.00;;
84474;SDS011;74699;43.068;0.152;2024-02-16T01:29:43;1.15;;;0.10;;
84474;SDS011;74699;43.068;0.152;2024-02-16T01:32:09;1.15;;;0.20;;
84474;SDS011;74699;43.068;0.152;2024-02-16T01:34:35;0.50;;;0.10;;
84474;SDS011;74699;43.068;0.152;2024-02-16T01:37:03;0.20;;;0.00;;
84474;SDS011;74699;43.068;0.152;2024-02-16T01:39:29;0.38;;;0.10;;
84474;SDS011;74699;43.068;0.152;2024-02-16T01:41:55;0.63;;;0.10;;
84474;SDS011;74699;43.068;0.152;2024-02-16T01:44:21;0.13;;;0.00;;
84474;SDS011;74699;43.068;0.152;2024-02-16T01:46:47;0.35;;;0.13;;
84474;SDS011;74699;43.068;0.152;2024-02-16T01:49:13;0.03;;;0.00;;
84474;SDS011;74699;43.068;0.152;2024-02-16T01:51:40;0.20;;;0.00;;
84474;SDS011;74699;43.068;0.152;2024-02-16T01:54:06;0.20;;;0.00;;
84474;SDS011;74699;43.068;0.152;2024-02-16T01:56:32;0.03;;;0.00;;
84474;SDS011;74699;43.068;0.152;2024-02-16T01:58:58;0.32;;;0.00;;
84474;SDS011;74699;43.068;0.152;2024-02-16T02:01:25;0.03;;;0.00;;
84474;SDS011;74699;43.068;0.152;2024-02-16T02:03:51;0.38;;;0.00;;
84474;SDS011;74699;43.068;0.152;2024-02-16T02:06:17;0.65;;;0.10;;
84474;SDS011;74699;43.068;0.152;2024-02-16T02:08:43;0.60;;;0.10;;
84474;SDS011;74699;43.068;0.152;2024-02-16T02:11:09;0.20;;;0.00;;
84474;SDS011;74699;43.068;0.152;2024-02-16T02:13:35;0.00;;;0.00;;
84474;SDS011;74699;43.068;0.152;2024-02-16T02:18:28;0.40;;;0.13;;
84474;SDS011;74699;43.068;0.152;2024-02-16T02:20:54;0.10;;;0.10;;
84474;SDS011;74699;43.068;0.152;2024-02-16T02:23:20;0.70;;;0.00;;
84474;SDS011;74699;43.068;0.152;2024-02-16T02:25:46;0.25;;;0.00;;
84474;SDS011;74699;43.068;0.152;2024-02-16T02:28:14;0.30;;;0.10;;
84474;SDS011;74699;43.068;0.152;2024-02-16T02:30:41;0.35;;;0.00;;
84474;SDS011;74699;43.068;0.152;2024-02-16T02:33:07;0.85;;;0.13;;
84474;SDS011;74699;43.068;0.152;2024-02-16T02:35:36;0.38;;;0.00;;
84474;SDS011;74699;43.068;0.152;2024-02-16T02:38:02;0.43;;;0.00;;
84474;SDS011;74699;43.068;0.152;2024-02-16T02:40:28;1.42;;;0.10;;
84474;SDS011;74699;43.068;0.152;2024-02-16T02:42:54;0.28;;;0.00;;
84474;SDS011;74699;43.068;0.152;2024-02-16T02:45:20;0.35;;;0.00;;
84474;SDS011;74699;43.068;0.152;2024-02-16T02:47:46;0.45;;;0.10;;
84474;SDS011;74699;43.068;0.152;2024-02-16T02:50:12;0.52;;;0.20;;
84474;SDS011;74699;43.068;0.152;2024-02-16T02:52:38;0.25;;;0.00;;
84474;SDS011;74699;43.068;0.152;2024-02-16T02:55:04;0.80;;;0.13;;
84474;SDS011;74699;43.068;0.152;2024-02-16T02:57:30;0.40;;;0.38;;
84474;SDS011;74699;43.068;0.152;2024-02-16T03:00:03;0.17;;;0.03;;
84474;SDS011;74699;43.068;0.152;2024-02-16T03:02:31;0.30;;;0.00;;
84474;SDS011;74699;43.068;0.152;2024-02-16T03:04:57;0.55;;;0.10;;
84474;SDS011;74699;43.068;0.152;2024-02-16T03:07:23;0.43;;;0.00;;
84474;SDS011;74699;43.068;0.152;2024-02-16T03:09:51;0.32;;;0.15;;
84474;SDS011;74699;43.068;0.152;2024-02-16T03:12:17;0.00;;;0.00;;
84474;SDS011;74699;43.068;0.152;2024-02-16T03:14:43;0.08;;;0.00;;
84474;SDS011;74699;43.068;0.152;2024-02-16T03:17:09;0.40;;;0.03;;
84474;SDS011;74699;43.068;0.152;2024-02-16T03:19:35;0.13;;;0.00;;
84474;SDS011;74699;43.068;0.152;2024-02-16T03:22:01;0.38;;;0.10;;
84474;SDS011;74699;43.068;0.152;2024-02-16T03:24:27;0.30;;;0.03;;
84474;SDS011;74699;43.068;0.152;2024-02-16T03:26:53;1.27;;;0.10;;
84474;SDS011;74699;43.068;0.152;2024-02-16T03:29:19;1.35;;;0.40;;
84474;SDS011;74699;43.068;0.152;2024-02-16T03:31:45;0.55;;;0.10;;
84474;SDS011;74699;43.068;0.152;2024-02-16T03:34:11;1.05;;;0.10;;
84474;SDS011;74699;43.068;0.152;2024-02-16T03:36:38;0.85;;;0.10;;
84474;SDS011;74699;43.068;0.152;2024-02-16T03:39:04;0.50;;;0.10;;
84474;SDS011;74699;43.068;0.152;2024-02-16T03:43:57;0.60;;;0.20;;
84474;SDS011;74699;43.068;0.152;2024-02-16T03:46:23;0.20;;;0.10;;
84474;SDS011;74699;43.068;0.152;2024-02-16T03:48:49;0.98;;;0.10;;
84474;SDS011;74699;43.068;0.152;2024-02-16T03:51:15;0.55;;;0.00;;
84474;SDS011;74699;43.068;0.152;2024-02-16T03:53:41;0.10;;;0.00;;
84474;SDS011;74699;43.068;0.152;2024-02-16T03:56:09;0.43;;;0.10;;
84474;SDS011;74699;43.068;0.152;2024-02-16T03:58:36;2.47;;;0.73;;
84474;SDS011;74699;43.068;0.152;2024-02-16T04:01:02;0.28;;;0.10;;
84474;SDS011;74699;43.068;0.152;2024-02-16T04:03:28;0.20;;;0.00;;
84474;SDS011;74699;43.068;0.152;2024-02-16T04:05:54;1.58;;;0.52;;
84474;SDS011;74699;43.068;0.152;2024-02-16T04:08:20;0.40;;;0.00;;
84474;SDS011;74699;43.068;0.152;2024-02-16T04:10:46;0.25;;;0.05;;
84474;SDS011;74699;43.068;0.152;2024-02-16T04:13:12;0.15;;;0.05;;
84474;SDS011;74699;43.068;0.152;2024-02-16T04:15:39;0.43;;;0.00;;
84474;SDS011;74699;43.068;0.152;2024-02-16T04:18:05;0.15;;;0.00;;
84474;SDS011;74699;43.068;0.152;2024-02-16T04:20:31;0.05;;;0.00;;
84474;SDS011;74699;43.068;0.152;2024-02-16T04:22:57;0.03;;;0.00;;
84474;SDS011;74699;43.068;0.152;2024-02-16T04:25:23;0.20;;;0.00;;
84474;SDS011;74699;43.068;0.152;2024-02-16T04:27:49;0.10;;;0.00;;
84474;SDS011;74699;43.068;0.152;2024-02-16T04:30:16;0.65;;;0.08;;
84474;SDS011;74699;43.068;0.152;2024-02-16T04:32:42;0.20;;;0.05;;
84474;SDS011;74699;43.068;0.152;2024-02-16T04:35:08;0.40;;;0.00;;
84474;SDS011;74699;43.068;0.152;2024-02-16T04:37:37;0.10;;;0.00;;
84474;SDS011;74699;43.068;0.152;2024-02-16T04:40:04;0.70;;;0.08;;
84474;SDS011;74699;43.068;0.152;2024-02-16T04:42:30;0.40;;;0.10;;
84474;SDS011;74699;43.068;0.152;2024-02-16T04:44:57;0.30;;;0.03;;
84474;SDS011;74699;43.068;0.152;2024-02-16T04:47:24;0.50;;;0.32;;
84474;SDS011;74699;43.068;0.152;2024-02-16T04:49:51;0.50;;;0.10;;
84474;SDS011;74699;43.068;0.152;2024-02-16T04:52:17;0.60;;;0.15;;
84474;SDS011;74699;43.068;0.152;2024-02-16T04:54:43;0.93;;;0.13;;
84474;SDS011;74699;43.068;0.152;2024-02-16T04:57:09;0.35;;;0.20;;
84474;SDS011;74699;43.068;0.152;2024-02-16T04:59:35;0.43;;;0.10;;
84474;SDS011;74699;43.068;0.152;2024-02-16T05:02:01;0.28;;;0.10;;
84474;SDS011;74699;43.068;0.152;2024-02-16T05:04:29;0.98;;;0.32;;
84474;SDS011;74699;43.068;0.152;2024-02-16T05:06:55;0.95;;;0.10;;
84474;SDS011;74699;43.068;0.152;2024-02-16T05:09:22;0.45;;;0.10;;
84474;SDS011;74699;43.068;0.152;2024-02-16T05:14:16;0.93;;;0.13;;
84474;SDS011;74699;43.068;0.152;2024-02-16T05:16:46;1.25;;;0.10;;
84474;SDS011;74699;43.068;0.152;2024-02-16T05:19:12;0.52;;;0.10;;
84474;SDS011;74699;43.068;0.152;2024-02-16T05:21:40;0.95;;;0.30;;
84474;SDS011;74699;43.068;0.152;2024-02-16T05:24:06;1.38;;;0.10;;
84474;SDS011;74699;43.068;0.152;2024-02-16T05:26:32;0.60;;;0.10;;
84474;SDS011;74699;43.068;0.152;2024-02-16T05:28:59;1.08;;;0.10;;
84474;SDS011;74699;43.068;0.152;2024-02-16T05:31:25;1.38;;;0.25;;
84474;SDS011;74699;43.068;0.152;2024-02-16T05:33:51;1.27;;;0.10;;
84474;SDS011;74699;43.068;0.152;2024-02-16T05:36:20;0.98;;;0.17;;
84474;SDS011;74699;43.068;0.152;2024-02-16T05:38:49;0.45;;;0.10;;
84474;SDS011;74699;43.068;0.152;2024-02-16T05:41:16;0.80;;;0.10;;
84474;SDS011;74699;43.068;0.152;2024-02-16T05:43:43;1.52;;;0.22;;
84474;SDS011;74699;43.068;0.152;2024-02-16T05:46:13;0.90;;;0.10;;
84474;SDS011;74699;43.068;0.152;2024-02-16T05:48:39;0.40;;;0.10;;
84474;SDS011;74699;43.068;0.152;2024-02-16T05:51:05;0.40;;;0.10;;
84474;SDS011;74699;43.068;0.152;2024-02-16T05:53:32;0.73;;;0.17;;
84474;SDS011;74699;43.068;0.152;2024-02-16T05:55:58;1.15;;;0.40;;
84474;SDS011;74699;43.068;0.152;2024-02-16T05:58:25;1.90;;;0.10;;
84474;SDS011;74699;43.068;0.152;2024-02-16T06:00:51;2.35;;;0.22;;
84474;SDS011;74699;43.068;0.152;2024-02-16T06:03:17;0.95;;;0.10;;
84474;SDS011;74699;43.068;0.152;2024-02-16T06:05:43;0.95;;;0.10;;
84474;SDS011;74699;43.068;0.152;2024-02-16T06:08:12;1.20;;;0.20;;
84474;SDS011;74699;43.068;0.152;2024-02-16T06:10:38;2.17;;;0.35;;
84474;SDS011;74699;43.068;0.152;2024-02-16T06:13:05;2.65;;;0.20;;
84474;SDS011;74699;43.068;0.152;2024-02-16T06:15:31;1.13;;;0.30;;
84474;SDS011;74699;43.068;0.152;2024-02-16T06:17:59;3.47;;;0.35;;
84474;SDS011;74699;43.068;0.152;2024-02-16T06:22:51;3.55;;;0.35;;
84474;SDS011;74699;43.068;0.152;2024-02-16T06:25:17;2.10;;;0.30;;
84474;SDS011;74699;43.068;0.152;2024-02-16T06:27:44;0.80;;;0.15;;
84474;SDS011;74699;43.068;0.152;2024-02-16T06:30:10;2.22;;;0.30;;
84474;SDS011;74699;43.068;0.152;2024-02-16T06:32:38;2.72;;;0.32;;
84474;SDS011;74699;43.068;0.152;2024-02-16T06:35:05;1.02;;;0.20;;
84474;SDS011;74699;43.068;0.152;2024-02-16T06:37:32;3.33;;;0.50;;
84474;SDS011;74699;43.068;0.152;2024-02-16T06:39:58;2.38;;;0.40;;
84474;SDS011;74699;43.068;0.152;2024-02-16T06:42:24;1.55;;;0.40;;
84474;SDS011;74699;43.068;0.152;2024-02-16T06:44:51;3.60;;;0.30;;
84474;SDS011;74699;43.068;0.152;2024-02-16T06:47:17;2.05;;;0.32;;
84474;SDS011;74699;43.068;0.152;2024-02-16T06:49:43;2.38;;;0.50;;
84474;SDS011;74699;43.068;0.152;2024-02-16T06:52:11;2.92;;;0.52;;
84474;SDS011;74699;43.068;0.152;2024-02-16T06:54:37;2.17;;;0.47;;
84474;SDS011;74699;43.068;0.152;2024-02-16T06:57:03;2.85;;;0.52;;
84474;SDS011;74699;43.068;0.152;2024-02-16T06:59:30;1.70;;;0.30;;
84474;SDS011;74699;43.068;0.152;2024-02-16T07:01:56;1.90;;;0.85;;
84474;SDS011;74699;43.068;0.152;2024-02-16T07:04:22;1.20;;;0.22;;
84474;SDS011;74699;43.068;0.152;2024-02-16T07:06:48;1.23;;;0.28;;
84474;SDS011;74699;43.068;0.152;2024-02-16T07:09:14;2.97;;;0.50;;
84474;SDS011;74699;43.068;0.152;2024-02-16T07:11:41;1.00;;;0.28;;
84474;SDS011;74699;43.068;0.152;2024-02-16T07:14:07;2.13;;;0.28;;
84474;SDS011;74699;43.068;0.152;2024-02-16T07:16:33;1.42;;;0.20;;
84474;SDS011;74699;43.068;0.152;2024-02-16T07:19:00;4.80;;;0.50;;
84474;SDS011;74699;43.068;0.152;2024-02-16T07:21:26;2.13;;;0.75;;
84474;SDS011;74699;43.068;0.152;2024-02-16T07:23:52;3.13;;;0.38;;
84474;SDS011;74699;43.068;0.152;2024-02-16T07:26:18;1.15;;;0.25;;
84474;SDS011;74699;43.068;0.152;2024-02-16T07:28:44;2.33;;;0.52;;
84474;SDS011;74699;43.068;0.152;2024-02-16T07:31:10;1.85;;;0.30;;
84474;SDS011;74699;43.068;0.152;2024-02-16T07:33:36;2.17;;;0.20;;
84474;SDS011;74699;43.068;0.152;2024-02-16T07:36:03;0.93;;;0.20;;
84474;SDS011;74699;43.068;0.152;2024-02-16T07:38:29;1.70;;;0.30;;
84474;SDS011;74699;43.068;0.152;2024-02-16T07:40:55;2.72;;;0.43;;
84474;SDS011;74699;43.068;0.152;2024-02-16T07:43:21;1.73;;;0.32;;
84474;SDS011;74699;43.068;0.152;2024-02-16T07:45:49;0.98;;;0.43;;
84474;SDS011;74699;43.068;0.152;2024-02-16T07:48:15;2.85;;;0.47;;
84474;SDS011;74699;43.068;0.152;2024-02-16T07:50:41;0.85;;;0.22;;
84474;SDS011;74699;43.068;0.152;2024-02-16T07:53:07;1.38;;;0.20;;
84474;SDS011;74699;43.068;0.152;2024-02-16T07:55:36;1.58;;;0.20;;
84474;SDS011;74699;43.068;0.152;2024-02-16T07:58:02;2.70;;;0.30;;
84474;SDS011;74699;43.068;0.152;2024-02-16T08:00:28;1.40;;;0.30;;
84474;SDS011;74699;43.068;0.152;2024-02-16T08:02:54;2.20;;;0.22;;
84474;SDS011;74699;43.068;0.152;2024-02-16T08:05:20;0.77;;;0.17;;
84474;SDS011;74699;43.068;0.152;2024-02-16T08:07:47;1.83;;;0.20;;
84474;SDS011;74699;43.068;0.152;2024-02-16T08:10:13;1.45;;;0.20;;
84474;SDS011;74699;43.068;0.152;2024-02-16T08:12:39;1.90;;;0.50;;
84474;SDS011;74699;43.068;0.152;2024-02-16T08:15:05;2.15;;;0.25;;
84474;SDS011;74699;43.068;0.152;2024-02-16T08:17:35;2.30;;;0.35;;
84474;SDS011;74699;43.068;0.152;2024-02-16T08:20:01;1.40;;;0.20;;
84474;SDS011;74699;43.068;0.152;2024-02-16T08:22:28;0.60;;;0.10;;
84474;SDS011;74699;43.068;0.152;2024-02-16T08:24:54;1.05;;;0.30;;
84474;SDS011;74699;43.068;0.152;2024-02-16T08:27:20;0.98;;;0.28;;
84474;SDS011;74699;43.068;0.152;2024-02-16T08:29:46;0.93;;;0.20;;
84474;SDS011;74699;43.068;0.152;2024-02-16T08:32:12;1.98;;;0.30;;
84474;SDS011;74699;43.068;0.152;2024-02-16T08:34:38;5.93;;;2.05;;
84474;SDS011;74699;43.068;0.152;2024-02-16T08:37:05;5.15;;;1.70;;
84474;SDS011;74699;43.068;0.152;2024-02-16T08:39:32;2.15;;;0.63;;
84474;SDS011;74699;43.068;0.152;2024-02-16T08:44:25;2.70;;;1.00;;
84474;SDS011;74699;43.068;0.152;2024-02-16T08:46:52;1.98;;;0.50;;
84474;SDS011;74699;43.068;0.152;2024-02-16T08:49:19;2.78;;;0.50;;
84474;SDS011;74699;43.068;0.152;2024-02-16T08:51:47;1.33;;;0.32;;
84474;SDS011;74699;43.068;0.152;2024-02-16T08:56:39;1.13;;;0.30;;
84474;SDS011;74699;43.068;0.152;2024-02-16T08:59:05;1.85;;;0.38;;
84474;SDS011;74699;43.068;0.152;2024-02-16T09:01:32;1.85;;;0.47;;
84474;SDS011;74699;43.068;0.152;2024-02-16T09:03:58;1.63;;;0.52;;
84474;SDS011;74699;43.068;0.152;2024-02-16T09:06:25;1.95;;;0.52;;
84474;SDS011;74699;43.068;0.152;2024-02-16T09:08:51;1.92;;;0.30;;
84474;SDS011;74699;43.068;0.152;2024-02-16T09:11:17;2.35;;;0.52;;
84474;SDS011;74699;43.068;0.152;2024-02-16T09:13:44;3.65;;;0.90;;
84474;SDS011;74699;43.068;0.152;2024-02-16T09:16:10;3.65;;;0.60;;
84474;SDS011;74699;43.068;0.152;2024-02-16T09:18:36;2.72;;;0.65;;
84474;SDS011;74699;43.068;0.152;2024-02-16T09:21:03;3.45;;;0.70;;
84474;SDS011;74699;43.068;0.152;2024-02-16T09:23:29;3.05;;;0.60;;
84474;SDS011;74699;43.068;0.152;2024-02-16T09:25:55;1.70;;;0.60;;
84474;SDS011;74699;43.068;0.152;2024-02-16T09:28:21;1.73;;;0.60;;
84474;SDS011;74699;43.068;0.152;2024-02-16T09:30:47;1.70;;;0.40;;
84474;SDS011;74699;43.068;0.152;2024-02-16T09:33:13;2.30;;;0.43;;
84474;SDS011;74699;43.068;0.152;2024-02-16T09:35:39;1.90;;;0.75;;
84474;SDS011;74699;43.068;0.152;2024-02-16T09:38:06;1.75;;;0.70;;
84474;SDS011;74699;43.068;0.152;2024-02-16T09:40:32;2.60;;;0.70;;
84474;SDS011;74699;43.068;0.152;2024-02-16T09:42:58;2.30;;;0.55;;
84474;SDS011;74699;43.068;0.152;2024-02-16T09:45:24;2.15;;;0.80;;
84474;SDS011;74699;43.068;0.152;2024-02-16T09:47:51;2.28;;;0.68;;
84474;SDS011;74699;43.068;0.152;2024-02-16T09:50:17;3.17;;;1.00;;
84474;SDS011;74699;43.068;0.152;2024-02-16T09:52:47;3.05;;;1.05;;
84474;SDS011;74699;43.068;0.152;2024-02-16T09:55:14;2.88;;;1.13;;
84474;SDS011;74699;43.068;0.152;2024-02-16T09:57:40;3.22;;;0.90;;
84474;SDS011;74699;43.068;0.152;2024-02-16T10:02:44;2.70;;;1.05;;
84474;SDS011;74699;43.068;0.152;2024-02-16T10:05:13;2.15;;;0.63;;
84474;SDS011;74699;43.068;0.152;2024-02-16T10:07:40;3.30;;;0.90;;
84474;SDS011;74699;43.068;0.152;2024-02-16T10:10:06;1.85;;;0.65;;
84474;SDS011;74699;43.068;0.152;2024-02-16T10:12:32;2.53;;;0.68;;
84474;SDS011;74699;43.068;0.152;2024-02-16T10:14:58;1.05;;;0.30;;
84474;SDS011;74699;43.068;0.152;2024-02-16T10:17:25;1.63;;;0.50;;
84474;SDS011;74699;43.068;0.152;2024-02-16T10:19:59;1.90;;;0.45;;
84474;SDS011;74699;43.068;0.152;2024-02-16T10:22:31;1.80;;;0.65;;
84474;SDS011;74699;43.068;0.152;2024-02-16T10:25:07;4.28;;;1.88;;
84474;SDS011;74699;43.068;0.152;2024-02-16T10:27:38;2.40;;;0.82;;
84474;SDS011;74699;43.068;0.152;2024-02-16T10:30:07;2.88;;;1.00;;
84474;SDS011;74699;43.068;0.152;2024-02-16T10:32:36;4.60;;;1.65;;
84474;SDS011;74699;43.068;0.152;2024-02-16T10:35:02;3.45;;;1.20;;
84474;SDS011;74699;43.068;0.152;2024-02-16T10:37:29;3.63;;;1.00;;
84474;SDS011;74699;43.068;0.152;2024-02-16T10:39:55;1.73;;;0.55;;
84474;SDS011;74699;43.068;0.152;2024-02-16T10:42:23;2.45;;;0.70;;
84474;SDS011;74699;43.068;0.152;2024-02-16T10:44:50;2.15;;;0.80;;
84474;SDS011;74699;43.068;0.152;2024-02-16T10:47:17;4.47;;;1.63;;
84474;SDS011;74699;43.068;0.152;2024-02-16T10:49:43;2.42;;;0.80;;
84474;SDS011;74699;43.068;0.152;2024-02-16T10:52:10;2.72;;;1.30;;
84474;SDS011;74699;43.068;0.152;2024-02-16T10:54:37;2.83;;;1.38;;
84474;SDS011;74699;43.068;0.152;2024-02-16T10:57:08;3.13;;;1.17;;
84474;SDS011;74699;43.068;0.152;2024-02-16T10:59:41;3.85;;;0.90;;
84474;SDS011;74699;43.068;0.152;2024-02-16T11:02:11;2.72;;;0.73;;
84474;SDS011;74699;43.068;0.152;2024-02-16T11:04:37;1.30;;;0.40;;
84474;SDS011;74699;43.068;0.152;2024-02-16T11:07:10;1.92;;;0.55;;
84474;SDS011;74699;43.068;0.152;2024-02-16T11:09:38;2.45;;;0.57;;
84474;SDS011;74699;43.068;0.152;2024-02-16T11:12:11;1.33;;;0.40;;
84474;SDS011;74699;43.068;0.152;2024-02-16T11:17:07;2.30;;;0.60;;
84474;SDS011;74699;43.068;0.152;2024-02-16T11:19:34;2.28;;;0.70;;
84474;SDS011;74699;43.068;0.152;2024-02-16T11:22:04;2.75;;;0.85;;
84474;SDS011;74699;43.068;0.152;2024-02-16T11:24:42;3.15;;;1.05;;
84474;SDS011;74699;43.068;0.152;2024-02-16T11:27:09;4.22;;;1.00;;
84474;SDS011;74699;43.068;0.152;2024-02-16T11:29:36;1.85;;;0.55;;
84474;SDS011;74699;43.068;0.152;2024-02-16T11:34:29;2.42;;;0.73;;
84474;SDS011;74699;43.068;0.152;2024-02-16T11:36:56;2.45;;;0.98;;
84474;SDS011;74699;43.068;0.152;2024-02-16T11:39:22;3.67;;;0.90;;
84474;SDS011;74699;43.068;0.152;2024-02-16T11:42:07;2.20;;;0.93;;
84474;SDS011;74699;43.068;0.152;2024-02-16T11:44:35;2.35;;;1.05;;
84474;SDS011;74699;43.068;0.152;2024-02-16T11:47:02;3.85;;;1.10;;
84474;SDS011;74699;43.068;0.152;2024-02-16T11:49:31;4.13;;;1.50;;
84474;SDS011;74699;43.068;0.152;2024-02-16T11:51:59;4.35;;;1.83;;
84474;SDS011;74699;43.068;0.152;2024-02-16T11:54:25;2.20;;;0.70;;
84474;SDS011;74699;43.068;0.152;2024-02-16T11:56:51;1.52;;;0.57;;
84474;SDS011;74699;43.068;0.152;2024-02-16T11:59:18;2.28;;;0.73;;
84474;SDS011;74699;43.068;0.152;2024-02-16T12:01:51;2.33;;;1.15;;
84474;SDS011;74699;43.068;0.152;2024-02-16T12:04:27;3.60;;;1.13;;
84474;SDS011;74699;43.068;0.152;2024-02-16T12:06:57;7.10;;;2.45;;
84474;SDS011;74699;43.068;0.152;2024-02-16T12:09:23;3.05;;;1.40;;
84474;SDS011;74699;43.068;0.152;2024-02-16T12:11:52;3.05;;;1.20;;
84474;SDS011;74699;43.068;0.152;2024-02-16T12:14:19;2.95;;;1.17;;
84474;SDS011;74699;43.068;0.152;2024-02-16T12:16:47;2.42;;;1.00;;
84474;SDS011;74699;43.068;0.152;2024-02-16T12:19:13;2.80;;;1.27;;
84474;SDS011;74699;43.068;0.152;2024-02-16T12:21:39;1.80;;;0.70;;
84474;SDS011;74699;43.068;0.152;2024-02-16T12:24:05;2.58;;;1.10;;
84474;SDS011;74699;43.068;0.152;2024-02-16T12:26:31;2.38;;;0.85;;
84474;SDS011;74699;43.068;0.152;2024-02-16T12:28:57;1.88;;;0.70;;
84474;SDS011;74699;43.068;0.152;2024-02-16T12:31:24;2.22;;;0.73;;
84474;SDS011;74699;43.068;0.152;2024-02-16T12:36:17;2.95;;;0.70;;
84474;SDS011;74699;43.068;0.152;2024-02-16T12:38:43;2.00;;;0.73;;
84474;SDS011;74699;43.068;0.152;2024-02-16T12:41:09;3.90;;;0.90;;
84474;SDS011;74699;43.068;0.152;2024-02-16T12:43:36;2.13;;;0.70;;
84474;SDS011;74699;43.068;0.152;2024-02-16T12:46:02;3.25;;;0.70;;
84474;SDS011;74699;43.068;0.152;2024-02-16T12:48:29;2.28;;;0.68;;
84474;SDS011;74699;43.068;0.152;2024-02-16T12:50:55;3.13;;;0.90;;
84474;SDS011;74699;43.068;0.152;2024-02-16T12:53:23;2.80;;;0.90;;
84474;SDS011;74699;43.068;0.152;2024-02-16T12:55:50;3.60;;;1.20;;
84474;SDS011;74699;43.068;0.152;2024-02-16T12:58:17;3.90;;;1.90;;
84474;SDS011;74699;43.068;0.152;2024-02-16T13:00:43;4.85;;;1.58;;
84474;SDS011;74699;43.068;0.152;2024-02-16T13:03:09;2.00;;;0.90;;
84474;SDS011;74699;43.068;0.152;2024-02-16T13:05:35;3.22;;;1.10;;
84474;SDS011;74699;43.068;0.152;2024-02-16T13:08:01;4.15;;;1.20;;
84474;SDS011;74699;43.068;0.152;2024-02-16T13:10:27;3.30;;;1.20;;
84474;SDS011;74699;43.068;0.152;2024-02-16T13:12:53;3.33;;;1.00;;
84474;SDS011;74699;43.068;0.152;2024-02-16T13:15:19;1.95;;;0.55;;
84474;SDS011;74699;43.068;0.152;2024-02-16T13:17:45;2.00;;;0.70;;
84474;SDS011;74699;43.068;0.152;2024-02-16T13:20:11;2.90;;;0.70;;
84474;SDS011;74699;43.068;0.152;2024-02-16T13:22:37;3.65;;;1.10;;
84474;SDS011;74699;43.068;0.152;2024-02-16T13:25:04;3.35;;;1.30;;
84474;SDS011;74699;43.068;0.152;2024-02-16T13:27:33;3.30;;;1.20;;
84474;SDS011;74699;43.068;0.152;2024-02-16T13:29:59;3.88;;;0.90;;
84474;SDS011;74699;43.068;0.152;2024-02-16T13:32:25;2.85;;;0.82;;
84474;SDS011;74699;43.068;0.152;2024-02-16T13:34:52;1.38;;;0.40;;
84474;SDS011;74699;43.068;0.152;2024-02-16T13:37:17;1.00;;;0.40;;
84474;SDS011;74699;43.068;0.152;2024-02-16T13:39:43;1.85;;;0.43;;
84474;SDS011;74699;43.068;0.152;2024-02-16T13:42:12;0.75;;;0.50;;
84474;SDS011;74699;43.068;0.152;2024-02-16T13:44:38;2.08;;;0.55;;
84474;SDS011;74699;43.068;0.152;2024-02-16T13:47:05;1.20;;;0.22;;
84474;SDS011;74699;43.068;0.152;2024-02-16T13:49:31;1.58;;;0.30;;
84474;SDS011;74699;43.068;0.152;2024-02-16T13:51:57;2.60;;;0.35;;
84474;SDS011;74699;43.068;0.152;2024-02-16T13:54:26;1.17;;;0.38;;
84474;SDS011;74699;43.068;0.152;2024-02-16T13:56:52;0.93;;;0.22;;
84474;SDS011;74699;43.068;0.152;2024-02-16T13:59:19;0.90;;;0.20;;
84474;SDS011;74699;43.068;0.152;2024-02-16T14:01:45;0.43;;;0.13;;
84474;SDS011;74699;43.068;0.152;2024-02-16T14:04:11;1.58;;;0.20;;
84474;SDS011;74699;43.068;0.152;2024-02-16T14:06:38;1.92;;;0.30;;
84474;SDS011;74699;43.068;0.152;2024-02-16T14:09:04;1.70;;;0.63;;
84474;SDS011;74699;43.068;0.152;2024-02-16T14:11:36;2.08;;;0.30;;
84474;SDS011;74699;43.068;0.152;2024-02-16T14:14:02;1.73;;;0.22;;
84474;SDS011;74699;43.068;0.152;2024-02-16T14:16:28;1.10;;;0.20;;
84474;SDS011;74699;43.068;0.152;2024-02-16T14:18:55;0.32;;;0.10;;
84474;SDS011;74699;43.068;0.152;2024-02-16T14:21:21;0.63;;;0.20;;
84474;SDS011;74699;43.068;0.152;2024-02-16T14:23:48;0.35;;;0.10;;
84474;SDS011;74699;43.068;0.152;2024-02-16T14:26:14;1.52;;;0.10;;
84474;SDS011;74699;43.068;0.152;2024-02-16T14:28:40;0.57;;;0.10;;
84474;SDS011;74699;43.068;0.152;2024-02-16T14:31:06;1.98;;;0.30;;
84474;SDS011;74699;43.068;0.152;2024-02-16T14:33:32;1.15;;;0.30;;
84474;SDS011;74699;43.068;0.152;2024-02-16T14:35:59;0.43;;;0.10;;
84474;SDS011;74699;43.068;0.152;2024-02-16T14:38:25;1.58;;;0.35;;
84474;SDS011;74699;43.068;0.152;2024-02-16T14:40:52;1.40;;;0.32;;
84474;SDS011;74699;43.068;0.152;2024-02-16T14:43:18;1.35;;;0.30;;
84474;SDS011;74699;43.068;0.152;2024-02-16T14:45:44;1.40;;;0.65;;
84474;SDS011;74699;43.068;0.152;2024-02-16T14:48:10;0.95;;;0.20;;
84474;SDS011;74699;43.068;0.152;2024-02-16T14:50:36;1.20;;;0.10;;
84474;SDS011;74699;43.068;0.152;2024-02-16T14:53:03;0.57;;;0.20;;
84474;SDS011;74699;43.068;0.152;2024-02-16T14:55:29;1.40;;;0.40;;
84474;SDS011;74699;43.068;0.152;2024-02-16T14:57:55;1.10;;;0.40;;
84474;SDS011;74699;43.068;0.152;2024-02-16T15:00:21;1.23;;;0.30;;
84474;SDS011;74699;43.068;0.152;2024-02-16T15:02:49;2.80;;;0.63;;
84474;SDS011;74699;43.068;0.152;2024-02-16T15:05:16;2.67;;;0.50;;
84474;SDS011;74699;43.068;0.152;2024-02-16T15:07:42;4.15;;;0.50;;
84474;SDS011;74699;43.068;0.152;2024-02-16T15:10:08;2.00;;;0.30;;